sensor_id;sensor_type;location;lat;lon;timestamp;temperature;humidity
31074;DHT22;17730;53.552;9.940;2023-05-07T00:01:41;9.50;99.90
31074;DHT22;17730;53.552;9.940;2023-05-07T00:04:07;9.50;99.90
31074;DHT22;17730;53.552;9.940;2023-05-07T00:06:32;9.50;99.90
31074;DHT22;17730;53.552;9.940;2023-05-07T00:08:58;9.50;99.90
31074;DHT22;17730;53.552;9.940;2023-05-07T00:11:24;9.50;99.90
31074;DHT22;17730;53.552;9.940;2023-05-07T00:13:51;9.50;99.90
31074;DHT22;17730;53.552;9.940;2023-05-07T00:16:16;9.50;99.90
31074;DHT22;17730;53.552;9.940;2023-05-07T00:18:42;9.50;99.90
31074;DHT22;17730;53.552;9.940;2023-05-07T00:21:07;9.50;99.90
31074;DHT22;17730;53.552;9.940;2023-05-07T00:23:33;9.50;99.90
31074;DHT22;17730;53.552;9.940;2023-05-07T00:25:58;9.50;99.90
31074;DHT22;17730;53.552;9.940;2023-05-07T00:28:23;9.50;99.90
31074;DHT22;17730;53.552;9.940;2023-05-07T00:30:49;9.40;99.90
31074;DHT22;17730;53.552;9.940;2023-05-07T00:33:15;9.40;99.90
31074;DHT22;17730;53.552;9.940;2023-05-07T00:35:41;9.40;99.90
31074;DHT22;17730;53.552;9.940;2023-05-07T00:38:07;9.40;99.90
31074;DHT22;17730;53.552;9.940;2023-05-07T00:40:32;9.40;99.90
31074;DHT22;17730;53.552;9.940;2023-05-07T00:42:58;9.40;99.90
31074;DHT22;17730;53.552;9.940;2023-05-07T00:45:26;9.40;99.90
31074;DHT22;17730;53.552;9.940;2023-05-07T00:47:53;9.40;99.90
31074;DHT22;17730;53.552;9.940;2023-05-07T00:50:19;9.40;99.90
31074;DHT22;17730;53.552;9.940;2023-05-07T00:52:45;9.40;99.90
31074;DHT22;17730;53.552;9.940;2023-05-07T00:55:11;9.40;99.90
31074;DHT22;17730;53.552;9.940;2023-05-07T00:57:39;9.40;99.90
31074;DHT22;17730;53.552;9.940;2023-05-07T01:00:05;9.50;99.90
31074;DHT22;17730;53.552;9.940;2023-05-07T01:02:30;9.50;99.90
31074;DHT22;17730;53.552;9.940;2023-05-07T01:04:56;9.40;99.90
31074;DHT22;17730;53.552;9.940;2023-05-07T01:07:22;9.40;99.90
31074;DHT22;17730;53.552;9.940;2023-05-07T01:09:48;9.40;99.90
31074;DHT22;17730;53.552;9.940;2023-05-07T01:12:13;9.40;99.90
31074;DHT22;17730;53.552;9.940;2023-05-07T01:14:39;9.40;99.90
31074;DHT22;17730;53.552;9.940;2023-05-07T01:17:04;9.40;99.90
31074;DHT22;17730;53.552;9.940;2023-05-07T01:19:30;9.40;99.90
31074;DHT22;17730;53.552;9.940;2023-05-07T01:21:59;9.50;99.90
31074;DHT22;17730;53.552;9.940;2023-05-07T01:24:26;9.50;99.90
31074;DHT22;17730;53.552;9.940;2023-05-07T01:26:51;9.50;99.90
31074;DHT22;17730;53.552;9.940;2023-05-07T01:29:17;9.50;99.90
31074;DHT22;17730;53.552;9.940;2023-05-07T01:31:42;9.50;99.90
31074;DHT22;17730;53.552;9.940;2023-05-07T01:34:08;9.40;99.90
31074;DHT22;17730;53.552;9.940;2023-05-07T01:36:35;9.50;99.90
31074;DHT22;17730;53.552;9.940;2023-05-07T01:39:02;9.50;99.90
31074;DHT22;17730;53.552;9.940;2023-05-07T01:41:27;9.50;99.90
31074;DHT22;17730;53.552;9.940;2023-05-07T01:43:54;9.50;99.90
31074;DHT22;17730;53.552;9.940;2023-05-07T01:46:20;9.50;99.90
31074;DHT22;17730;53.552;9.940;2023-05-07T01:48:45;9.50;99.90
31074;DHT22;17730;53.552;9.940;2023-05-07T01:51:11;9.50;99.90
31074;DHT22;17730;53.552;9.940;2023-05-07T01:53:37;9.50;99.90
31074;DHT22;17730;53.552;9.940;2023-05-07T01:56:03;9.50;99.90
31074;DHT22;17730;53.552;9.940;2023-05-07T01:58:29;9.50;99.90
31074;DHT22;17730;53.552;9.940;2023-05-07T02:00:54;9.50;99.90
31074;DHT22;17730;53.552;9.940;2023-05-07T02:03:20;9.50;99.90
31074;DHT22;17730;53.552;9.940;2023-05-07T02:05:45;9.60;99.90
31074;DHT22;17730;53.552;9.940;2023-05-07T02:08:11;9.60;99.90
31074;DHT22;17730;53.552;9.940;2023-05-07T02:10:36;9.60;99.90
31074;DHT22;17730;53.552;9.940;2023-05-07T02:13:02;9.60;99.90
31074;DHT22;17730;53.552;9.940;2023-05-07T02:15:27;9.60;99.90
31074;DHT22;17730;53.552;9.940;2023-05-07T02:18:00;9.60;99.90
31074;DHT22;17730;53.552;9.940;2023-05-07T02:20:25;9.60;99.90
31074;DHT22;17730;53.552;9.940;2023-05-07T02:22:51;9.60;99.90
31074;DHT22;17730;53.552;9.940;2023-05-07T02:25:16;9.60;99.90
31074;DHT22;17730;53.552;9.940;2023-05-07T02:27:42;9.60;99.90
31074;DHT22;17730;53.552;9.940;2023-05-07T02:30:07;9.60;99.90
31074;DHT22;17730;53.552;9.940;2023-05-07T02:32:33;9.60;99.90
31074;DHT22;17730;53.552;9.940;2023-05-07T02:34:58;9.50;99.90
31074;DHT22;17730;53.552;9.940;2023-05-07T02:37:24;9.60;99.90
31074;DHT22;17730;53.552;9.940;2023-05-07T02:39:50;9.60;99.90
31074;DHT22;17730;53.552;9.940;2023-05-07T02:42:15;9.60;99.90
31074;DHT22;17730;53.552;9.940;2023-05-07T02:44:41;9.60;99.90
31074;DHT22;17730;53.552;9.940;2023-05-07T02:47:06;9.60;99.90
31074;DHT22;17730;53.552;9.940;2023-05-07T02:49:33;9.60;99.90
31074;DHT22;17730;53.552;9.940;2023-05-07T02:51:59;9.80;99.90
31074;DHT22;17730;53.552;9.940;2023-05-07T02:54:24;10.00;99.90
31074;DHT22;17730;53.552;9.940;2023-05-07T02:56:50;10.10;99.90
31074;DHT22;17730;53.552;9.940;2023-05-07T02:59:15;10.10;99.90
31074;DHT22;17730;53.552;9.940;2023-05-07T03:01:41;10.00;99.90
31074;DHT22;17730;53.552;9.940;2023-05-07T03:04:09;10.00;99.90
31074;DHT22;17730;53.552;9.940;2023-05-07T03:06:35;10.00;99.90
31074;DHT22;17730;53.552;9.940;2023-05-07T03:09:00;10.00;99.90
31074;DHT22;17730;53.552;9.940;2023-05-07T03:11:25;10.10;99.90
31074;DHT22;17730;53.552;9.940;2023-05-07T03:13:51;10.10;99.90
31074;DHT22;17730;53.552;9.940;2023-05-07T03:16:16;10.20;99.90
31074;DHT22;17730;53.552;9.940;2023-05-07T03:18:42;10.30;99.90
31074;DHT22;17730;53.552;9.940;2023-05-07T03:21:07;10.40;99.90
31074;DHT22;17730;53.552;9.940;2023-05-07T03:23:33;10.40;99.90
31074;DHT22;17730;53.552;9.940;2023-05-07T03:25:58;10.40;99.90
31074;DHT22;17730;53.552;9.940;2023-05-07T03:28:24;10.40;99.90
31074;DHT22;17730;53.552;9.940;2023-05-07T03:30:49;10.30;99.90
31074;DHT22;17730;53.552;9.940;2023-05-07T03:33:15;10.40;99.90
31074;DHT22;17730;53.552;9.940;2023-05-07T03:35:40;10.40;99.90
31074;DHT22;17730;53.552;9.940;2023-05-07T03:38:06;10.50;99.90
31074;DHT22;17730;53.552;9.940;2023-05-07T03:40:31;10.50;99.90
31074;DHT22;17730;53.552;9.940;2023-05-07T03:42:57;10.40;99.90
31074;DHT22;17730;53.552;9.940;2023-05-07T03:45:22;10.40;99.90
31074;DHT22;17730;53.552;9.940;2023-05-07T03:47:48;10.40;99.90
31074;DHT22;17730;53.552;9.940;2023-05-07T03:50:13;10.40;99.90
31074;DHT22;17730;53.552;9.940;2023-05-07T03:52:38;10.40;99.90
31074;DHT22;17730;53.552;9.940;2023-05-07T03:55:04;10.40;99.90
31074;DHT22;17730;53.552;9.940;2023-05-07T03:57:31;10.40;99.90
31074;DHT22;17730;53.552;9.940;2023-05-07T03:59:56;10.40;99.90
31074;DHT22;17730;53.552;9.940;2023-05-07T04:02:21;10.30;99.90
31074;DHT22;17730;53.552;9.940;2023-05-07T04:04:48;10.20;99.90
31074;DHT22;17730;53.552;9.940;2023-05-07T04:07:13;10.40;99.90
31074;DHT22;17730;53.552;9.940;2023-05-07T04:09:39;10.60;99.90
31074;DHT22;17730;53.552;9.940;2023-05-07T04:12:04;10.60;99.90
31074;DHT22;17730;53.552;9.940;2023-05-07T04:14:30;10.40;99.90
31074;DHT22;17730;53.552;9.940;2023-05-07T04:16:57;10.20;99.90
31074;DHT22;17730;53.552;9.940;2023-05-07T04:19:23;10.10;99.90
31074;DHT22;17730;53.552;9.940;2023-05-07T04:21:48;10.10;99.90
31074;DHT22;17730;53.552;9.940;2023-05-07T04:24:14;10.00;99.90
31074;DHT22;17730;53.552;9.940;2023-05-07T04:26:40;9.90;99.90
31074;DHT22;17730;53.552;9.940;2023-05-07T04:29:05;9.90;99.90
31074;DHT22;17730;53.552;9.940;2023-05-07T04:31:31;9.90;99.90
31074;DHT22;17730;53.552;9.940;2023-05-07T04:33:57;9.90;99.90
31074;DHT22;17730;53.552;9.940;2023-05-07T04:36:22;9.80;99.90
31074;DHT22;17730;53.552;9.940;2023-05-07T04:38:48;9.80;99.90
31074;DHT22;17730;53.552;9.940;2023-05-07T04:41:13;9.80;99.90
31074;DHT22;17730;53.552;9.940;2023-05-07T04:43:39;9.80;99.90
31074;DHT22;17730;53.552;9.940;2023-05-07T04:46:05;9.90;99.90
31074;DHT22;17730;53.552;9.940;2023-05-07T04:48:30;9.90;99.90
31074;DHT22;17730;53.552;9.940;2023-05-07T04:50:56;9.90;99.90
31074;DHT22;17730;53.552;9.940;2023-05-07T04:53:21;9.90;99.90
31074;DHT22;17730;53.552;9.940;2023-05-07T04:55:47;9.90;99.90
31074;DHT22;17730;53.552;9.940;2023-05-07T04:58:13;9.90;99.90
31074;DHT22;17730;53.552;9.940;2023-05-07T05:00:38;9.90;99.90
31074;DHT22;17730;53.552;9.940;2023-05-07T05:03:04;10.00;99.90
31074;DHT22;17730;53.552;9.940;2023-05-07T05:05:30;10.00;99.90
31074;DHT22;17730;53.552;9.940;2023-05-07T05:07:56;10.00;99.90
31074;DHT22;17730;53.552;9.940;2023-05-07T05:10:21;10.00;99.90
31074;DHT22;17730;53.552;9.940;2023-05-07T05:12:47;10.10;99.90
31074;DHT22;17730;53.552;9.940;2023-05-07T05:15:12;10.10;99.90
31074;DHT22;17730;53.552;9.940;2023-05-07T05:17:38;10.00;99.90
31074;DHT22;17730;53.552;9.940;2023-05-07T05:20:08;10.00;99.90
31074;DHT22;17730;53.552;9.940;2023-05-07T05:22:36;10.00;99.90
31074;DHT22;17730;53.552;9.940;2023-05-07T05:25:01;10.00;99.90
31074;DHT22;17730;53.552;9.940;2023-05-07T05:27:27;10.00;99.90
31074;DHT22;17730;53.552;9.940;2023-05-07T05:29:52;10.00;99.90
31074;DHT22;17730;53.552;9.940;2023-05-07T05:32:17;10.00;99.90
31074;DHT22;17730;53.552;9.940;2023-05-07T05:34:43;10.10;99.90
31074;DHT22;17730;53.552;9.940;2023-05-07T05:37:09;10.10;99.90
31074;DHT22;17730;53.552;9.940;2023-05-07T05:39:34;10.10;99.90
31074;DHT22;17730;53.552;9.940;2023-05-07T05:41:59;10.10;99.90
31074;DHT22;17730;53.552;9.940;2023-05-07T05:44:25;10.10;99.90
31074;DHT22;17730;53.552;9.940;2023-05-07T05:46:51;10.10;99.90
31074;DHT22;17730;53.552;9.940;2023-05-07T05:49:16;10.00;99.90
31074;DHT22;17730;53.552;9.940;2023-05-07T05:51:42;10.00;99.90
31074;DHT22;17730;53.552;9.940;2023-05-07T05:54:08;10.00;99.90
31074;DHT22;17730;53.552;9.940;2023-05-07T05:56:34;10.00;99.90
31074;DHT22;17730;53.552;9.940;2023-05-07T05:58:59;10.00;99.90
31074;DHT22;17730;53.552;9.940;2023-05-07T06:01:25;10.10;99.90
31074;DHT22;17730;53.552;9.940;2023-05-07T06:03:50;10.10;99.90
31074;DHT22;17730;53.552;9.940;2023-05-07T06:06:16;10.10;99.90
31074;DHT22;17730;53.552;9.940;2023-05-07T06:08:42;10.10;99.90
31074;DHT22;17730;53.552;9.940;2023-05-07T06:11:07;10.10;99.90
31074;DHT22;17730;53.552;9.940;2023-05-07T06:13:33;10.20;99.90
31074;DHT22;17730;53.552;9.940;2023-05-07T06:15:58;10.20;99.90
31074;DHT22;17730;53.552;9.940;2023-05-07T06:18:24;10.20;99.90
31074;DHT22;17730;53.552;9.940;2023-05-07T06:20:51;10.30;99.90
31074;DHT22;17730;53.552;9.940;2023-05-07T06:23:16;10.30;99.90
31074;DHT22;17730;53.552;9.940;2023-05-07T06:25:42;10.40;99.90
31074;DHT22;17730;53.552;9.940;2023-05-07T06:28:07;10.30;99.90
31074;DHT22;17730;53.552;9.940;2023-05-07T06:30:34;10.30;99.90
31074;DHT22;17730;53.552;9.940;2023-05-07T06:33:00;10.40;99.90
31074;DHT22;17730;53.552;9.940;2023-05-07T06:35:25;10.40;99.90
31074;DHT22;17730;53.552;9.940;2023-05-07T06:37:51;10.40;99.90
31074;DHT22;17730;53.552;9.940;2023-05-07T06:40:16;10.40;99.90
31074;DHT22;17730;53.552;9.940;2023-05-07T06:42:42;10.50;99.90
31074;DHT22;17730;53.552;9.940;2023-05-07T06:45:08;10.50;99.90
31074;DHT22;17730;53.552;9.940;2023-05-07T06:47:33;10.60;99.90
31074;DHT22;17730;53.552;9.940;2023-05-07T06:49:59;10.70;99.90
31074;DHT22;17730;53.552;9.940;2023-05-07T06:52:24;10.70;99.90
31074;DHT22;17730;53.552;9.940;2023-05-07T06:54:50;10.70;99.90
31074;DHT22;17730;53.552;9.940;2023-05-07T06:57:15;10.70;99.90
31074;DHT22;17730;53.552;9.940;2023-05-07T06:59:41;10.70;99.90
31074;DHT22;17730;53.552;9.940;2023-05-07T07:02:06;10.80;99.90
31074;DHT22;17730;53.552;9.940;2023-05-07T07:04:32;10.90;99.90
31074;DHT22;17730;53.552;9.940;2023-05-07T07:06:57;11.00;99.90
31074;DHT22;17730;53.552;9.940;2023-05-07T07:09:23;11.00;99.90
31074;DHT22;17730;53.552;9.940;2023-05-07T07:11:48;11.10;99.90
31074;DHT22;17730;53.552;9.940;2023-05-07T07:14:13;11.00;99.90
31074;DHT22;17730;53.552;9.940;2023-05-07T07:16:39;11.00;99.90
31074;DHT22;17730;53.552;9.940;2023-05-07T07:19:05;11.00;99.90
31074;DHT22;17730;53.552;9.940;2023-05-07T07:21:30;11.10;99.90
31074;DHT22;17730;53.552;9.940;2023-05-07T07:23:56;11.20;99.90
31074;DHT22;17730;53.552;9.940;2023-05-07T07:26:21;11.40;99.90
31074;DHT22;17730;53.552;9.940;2023-05-07T07:28:47;11.50;99.90
31074;DHT22;17730;53.552;9.940;2023-05-07T07:31:13;11.60;99.90
31074;DHT22;17730;53.552;9.940;2023-05-07T07:33:38;11.70;99.90
31074;DHT22;17730;53.552;9.940;2023-05-07T07:36:05;11.80;99.90
31074;DHT22;17730;53.552;9.940;2023-05-07T07:38:30;11.80;99.90
31074;DHT22;17730;53.552;9.940;2023-05-07T07:40:56;11.80;99.90
31074;DHT22;17730;53.552;9.940;2023-05-07T07:43:21;11.80;99.90
31074;DHT22;17730;53.552;9.940;2023-05-07T07:45:47;11.80;99.90
31074;DHT22;17730;53.552;9.940;2023-05-07T07:48:12;11.80;99.90
31074;DHT22;17730;53.552;9.940;2023-05-07T07:50:38;11.80;99.90
31074;DHT22;17730;53.552;9.940;2023-05-07T07:53:03;11.90;99.90
31074;DHT22;17730;53.552;9.940;2023-05-07T07:55:29;11.90;99.90
31074;DHT22;17730;53.552;9.940;2023-05-07T07:57:56;12.00;99.90
31074;DHT22;17730;53.552;9.940;2023-05-07T08:00:21;12.00;99.90
31074;DHT22;17730;53.552;9.940;2023-05-07T08:02:47;12.10;99.90
31074;DHT22;17730;53.552;9.940;2023-05-07T08:05:12;12.20;99.90
31074;DHT22;17730;53.552;9.940;2023-05-07T08:07:38;12.20;99.90
31074;DHT22;17730;53.552;9.940;2023-05-07T08:10:03;12.30;99.90
31074;DHT22;17730;53.552;9.940;2023-05-07T08:12:29;12.50;99.90
31074;DHT22;17730;53.552;9.940;2023-05-07T08:14:54;12.40;99.90
31074;DHT22;17730;53.552;9.940;2023-05-07T08:17:20;12.30;99.90
31074;DHT22;17730;53.552;9.940;2023-05-07T08:19:47;12.40;99.90
31074;DHT22;17730;53.552;9.940;2023-05-07T08:22:13;12.20;99.90
31074;DHT22;17730;53.552;9.940;2023-05-07T08:24:39;12.20;99.90
31074;DHT22;17730;53.552;9.940;2023-05-07T08:27:05;12.20;99.90
31074;DHT22;17730;53.552;9.940;2023-05-07T08:29:30;12.10;99.90
31074;DHT22;17730;53.552;9.940;2023-05-07T08:31:56;12.00;99.90
31074;DHT22;17730;53.552;9.940;2023-05-07T08:34:22;11.90;99.90
31074;DHT22;17730;53.552;9.940;2023-05-07T08:36:47;12.10;99.90
31074;DHT22;17730;53.552;9.940;2023-05-07T08:39:15;12.10;99.90
31074;DHT22;17730;53.552;9.940;2023-05-07T08:41:40;12.30;99.90
31074;DHT22;17730;53.552;9.940;2023-05-07T08:44:08;12.40;99.90
31074;DHT22;17730;53.552;9.940;2023-05-07T08:46:36;12.60;99.90
31074;DHT22;17730;53.552;9.940;2023-05-07T08:49:02;12.60;99.90
31074;DHT22;17730;53.552;9.940;2023-05-07T08:51:28;12.50;99.90
31074;DHT22;17730;53.552;9.940;2023-05-07T08:53:53;12.50;99.90
31074;DHT22;17730;53.552;9.940;2023-05-07T08:56:19;12.40;99.90
31074;DHT22;17730;53.552;9.940;2023-05-07T08:58:45;12.40;99.90
31074;DHT22;17730;53.552;9.940;2023-05-07T09:01:14;12.40;99.90
31074;DHT22;17730;53.552;9.940;2023-05-07T09:03:40;12.50;99.90
31074;DHT22;17730;53.552;9.940;2023-05-07T09:06:06;12.50;99.90
31074;DHT22;17730;53.552;9.940;2023-05-07T09:08:34;12.60;99.90
31074;DHT22;17730;53.552;9.940;2023-05-07T09:11:00;12.70;99.90
31074;DHT22;17730;53.552;9.940;2023-05-07T09:13:27;12.80;99.90
31074;DHT22;17730;53.552;9.940;2023-05-07T09:15:52;12.90;99.90
31074;DHT22;17730;53.552;9.940;2023-05-07T09:18:18;13.00;99.90
31074;DHT22;17730;53.552;9.940;2023-05-07T09:20:43;13.10;99.90
31074;DHT22;17730;53.552;9.940;2023-05-07T09:23:09;13.10;99.90
31074;DHT22;17730;53.552;9.940;2023-05-07T09:25:35;13.10;99.90
31074;DHT22;17730;53.552;9.940;2023-05-07T09:28:01;13.10;99.90
31074;DHT22;17730;53.552;9.940;2023-05-07T09:30:30;13.20;99.90
31074;DHT22;17730;53.552;9.940;2023-05-07T09:32:57;13.20;99.90
31074;DHT22;17730;53.552;9.940;2023-05-07T09:35:22;13.20;99.90
31074;DHT22;17730;53.552;9.940;2023-05-07T09:37:55;13.40;99.90
31074;DHT22;17730;53.552;9.940;2023-05-07T09:40:21;13.60;99.90
31074;DHT22;17730;53.552;9.940;2023-05-07T09:42:47;13.80;99.90
31074;DHT22;17730;53.552;9.940;2023-05-07T09:45:14;14.00;99.90
31074;DHT22;17730;53.552;9.940;2023-05-07T09:47:40;14.00;99.90
31074;DHT22;17730;53.552;9.940;2023-05-07T09:50:09;13.90;99.90
31074;DHT22;17730;53.552;9.940;2023-05-07T09:52:35;14.00;99.90
31074;DHT22;17730;53.552;9.940;2023-05-07T09:55:02;14.10;99.90
31074;DHT22;17730;53.552;9.940;2023-05-07T09:57:27;14.00;99.90
31074;DHT22;17730;53.552;9.940;2023-05-07T09:59:53;14.00;99.90
31074;DHT22;17730;53.552;9.940;2023-05-07T10:02:21;14.20;99.90
31074;DHT22;17730;53.552;9.940;2023-05-07T10:04:47;14.20;99.90
31074;DHT22;17730;53.552;9.940;2023-05-07T10:07:13;14.20;99.90
31074;DHT22;17730;53.552;9.940;2023-05-07T10:09:39;14.30;99.90
31074;DHT22;17730;53.552;9.940;2023-05-07T10:12:07;14.40;99.90
31074;DHT22;17730;53.552;9.940;2023-05-07T10:14:32;14.40;99.90
31074;DHT22;17730;53.552;9.940;2023-05-07T10:16:58;14.30;99.90
31074;DHT22;17730;53.552;9.940;2023-05-07T10:19:24;14.20;99.90
31074;DHT22;17730;53.552;9.940;2023-05-07T10:21:54;14.20;99.90
31074;DHT22;17730;53.552;9.940;2023-05-07T10:24:29;14.10;99.90
31074;DHT22;17730;53.552;9.940;2023-05-07T10:26:55;14.30;99.90
31074;DHT22;17730;53.552;9.940;2023-05-07T10:32:10;14.50;99.90
31074;DHT22;17730;53.552;9.940;2023-05-07T10:34:40;14.80;99.90
31074;DHT22;17730;53.552;9.940;2023-05-07T10:37:07;15.00;99.90
31074;DHT22;17730;53.552;9.940;2023-05-07T10:39:32;15.00;99.90
31074;DHT22;17730;53.552;9.940;2023-05-07T10:42:12;14.90;99.90
31074;DHT22;17730;53.552;9.940;2023-05-07T10:44:37;15.00;99.90
31074;DHT22;17730;53.552;9.940;2023-05-07T10:47:10;14.90;99.90
31074;DHT22;17730;53.552;9.940;2023-05-07T10:49:36;14.90;99.90
31074;DHT22;17730;53.552;9.940;2023-05-07T10:52:17;14.90;99.90
31074;DHT22;17730;53.552;9.940;2023-05-07T10:54:44;15.00;99.90
31074;DHT22;17730;53.552;9.940;2023-05-07T11:05:23;14.90;99.90
31074;DHT22;17730;53.552;9.940;2023-05-07T11:07:55;14.90;99.90
31074;DHT22;17730;53.552;9.940;2023-05-07T11:10:21;15.00;99.90
31074;DHT22;17730;53.552;9.940;2023-05-07T11:12:47;15.10;99.90
31074;DHT22;17730;53.552;9.940;2023-05-07T11:15:13;15.20;99.90
31074;DHT22;17730;53.552;9.940;2023-05-07T11:17:57;15.30;99.90
31074;DHT22;17730;53.552;9.940;2023-05-07T11:23:12;15.40;99.60
31074;DHT22;17730;53.552;9.940;2023-05-07T11:25:58;15.50;99.10
31074;DHT22;17730;53.552;9.940;2023-05-07T11:28:24;15.50;99.30
31074;DHT22;17730;53.552;9.940;2023-05-07T11:30:49;15.90;98.90
31074;DHT22;17730;53.552;9.940;2023-05-07T11:33:17;16.00;98.60
31074;DHT22;17730;53.552;9.940;2023-05-07T11:35:42;16.30;97.90
31074;DHT22;17730;53.552;9.940;2023-05-07T11:38:08;16.40;97.70
31074;DHT22;17730;53.552;9.940;2023-05-07T11:40:33;16.30;97.30
31074;DHT22;17730;53.552;9.940;2023-05-07T11:42:59;16.40;97.10
31074;DHT22;17730;53.552;9.940;2023-05-07T11:45:29;16.30;97.40
31074;DHT22;17730;53.552;9.940;2023-05-07T11:47:55;16.50;97.30
31074;DHT22;17730;53.552;9.940;2023-05-07T11:50:20;16.60;96.60
31074;DHT22;17730;53.552;9.940;2023-05-07T11:52:50;16.70;96.60
31074;DHT22;17730;53.552;9.940;2023-05-07T11:55:18;16.60;96.60
31074;DHT22;17730;53.552;9.940;2023-05-07T11:57:43;16.50;96.80
31074;DHT22;17730;53.552;9.940;2023-05-07T12:00:09;16.60;96.50
31074;DHT22;17730;53.552;9.940;2023-05-07T12:02:35;16.70;96.40
31074;DHT22;17730;53.552;9.940;2023-05-07T12:05:01;16.70;96.10
31074;DHT22;17730;53.552;9.940;2023-05-07T12:07:27;16.60;95.70
31074;DHT22;17730;53.552;9.940;2023-05-07T12:09:53;16.50;96.00
31074;DHT22;17730;53.552;9.940;2023-05-07T12:12:18;16.70;96.10
31074;DHT22;17730;53.552;9.940;2023-05-07T12:14:44;16.70;96.40
31074;DHT22;17730;53.552;9.940;2023-05-07T12:17:10;16.90;95.90
31074;DHT22;17730;53.552;9.940;2023-05-07T12:19:36;16.70;95.90
31074;DHT22;17730;53.552;9.940;2023-05-07T12:22:02;16.80;95.90
31074;DHT22;17730;53.552;9.940;2023-05-07T12:24:28;16.90;96.10
31074;DHT22;17730;53.552;9.940;2023-05-07T12:26:54;17.00;95.80
31074;DHT22;17730;53.552;9.940;2023-05-07T12:29:22;17.20;95.80
31074;DHT22;17730;53.552;9.940;2023-05-07T12:31:49;17.40;95.20
31074;DHT22;17730;53.552;9.940;2023-05-07T12:34:14;17.50;94.70
31074;DHT22;17730;53.552;9.940;2023-05-07T12:36:40;17.20;94.80
31074;DHT22;17730;53.552;9.940;2023-05-07T12:39:06;17.10;94.90
31074;DHT22;17730;53.552;9.940;2023-05-07T12:41:35;16.90;95.30
31074;DHT22;17730;53.552;9.940;2023-05-07T12:44:01;16.90;95.50
31074;DHT22;17730;53.552;9.940;2023-05-07T12:46:29;17.00;95.70
31074;DHT22;17730;53.552;9.940;2023-05-07T12:48:54;17.10;95.50
31074;DHT22;17730;53.552;9.940;2023-05-07T12:51:20;17.30;94.70
31074;DHT22;17730;53.552;9.940;2023-05-07T12:53:45;17.50;94.60
31074;DHT22;17730;53.552;9.940;2023-05-07T12:56:11;17.50;94.70
31074;DHT22;17730;53.552;9.940;2023-05-07T12:58:36;17.30;95.00
31074;DHT22;17730;53.552;9.940;2023-05-07T13:01:06;17.10;95.30
31074;DHT22;17730;53.552;9.940;2023-05-07T13:03:33;17.10;95.20
31074;DHT22;17730;53.552;9.940;2023-05-07T13:05:59;17.20;95.00
31074;DHT22;17730;53.552;9.940;2023-05-07T13:08:29;17.10;94.80
31074;DHT22;17730;53.552;9.940;2023-05-07T13:10:56;17.20;94.80
31074;DHT22;17730;53.552;9.940;2023-05-07T13:13:21;17.40;94.70
31074;DHT22;17730;53.552;9.940;2023-05-07T13:15:47;17.40;94.40
31074;DHT22;17730;53.552;9.940;2023-05-07T13:18:13;17.30;94.50
31074;DHT22;17730;53.552;9.940;2023-05-07T13:20:40;17.10;94.80
31074;DHT22;17730;53.552;9.940;2023-05-07T13:23:06;17.00;95.10
31074;DHT22;17730;53.552;9.940;2023-05-07T13:25:31;17.20;95.20
31074;DHT22;17730;53.552;9.940;2023-05-07T13:27:58;17.20;95.30
31074;DHT22;17730;53.552;9.940;2023-05-07T13:30:23;17.10;95.30
31074;DHT22;17730;53.552;9.940;2023-05-07T13:32:49;17.10;95.10
31074;DHT22;17730;53.552;9.940;2023-05-07T13:35:15;17.20;94.90
31074;DHT22;17730;53.552;9.940;2023-05-07T13:37:41;17.20;94.90
31074;DHT22;17730;53.552;9.940;2023-05-07T13:40:07;17.20;95.10
31074;DHT22;17730;53.552;9.940;2023-05-07T13:42:32;17.10;95.00
31074;DHT22;17730;53.552;9.940;2023-05-07T13:44:58;17.10;94.90
31074;DHT22;17730;53.552;9.940;2023-05-07T13:47:23;17.10;94.90
31074;DHT22;17730;53.552;9.940;2023-05-07T13:49:49;17.20;94.90
31074;DHT22;17730;53.552;9.940;2023-05-07T13:52:15;17.20;94.70
31074;DHT22;17730;53.552;9.940;2023-05-07T13:54:41;17.30;94.60
31074;DHT22;17730;53.552;9.940;2023-05-07T13:57:06;17.40;94.80
31074;DHT22;17730;53.552;9.940;2023-05-07T13:59:32;17.50;94.70
31074;DHT22;17730;53.552;9.940;2023-05-07T14:01:58;17.70;94.50
31074;DHT22;17730;53.552;9.940;2023-05-07T14:04:23;17.70;94.50
31074;DHT22;17730;53.552;9.940;2023-05-07T14:06:48;17.60;94.50
31074;DHT22;17730;53.552;9.940;2023-05-07T14:09:14;17.50;94.20
31074;DHT22;17730;53.552;9.940;2023-05-07T14:11:40;17.50;94.30
31074;DHT22;17730;53.552;9.940;2023-05-07T14:14:06;17.40;94.20
31074;DHT22;17730;53.552;9.940;2023-05-07T14:16:31;17.40;94.50
31074;DHT22;17730;53.552;9.940;2023-05-07T14:18:57;17.40;94.40
31074;DHT22;17730;53.552;9.940;2023-05-07T14:21:22;17.40;94.40
31074;DHT22;17730;53.552;9.940;2023-05-07T14:23:47;17.50;94.50
31074;DHT22;17730;53.552;9.940;2023-05-07T14:26:13;17.60;94.30
31074;DHT22;17730;53.552;9.940;2023-05-07T14:28:39;17.60;94.40
31074;DHT22;17730;53.552;9.940;2023-05-07T14:31:05;17.60;93.90
31074;DHT22;17730;53.552;9.940;2023-05-07T14:33:31;17.40;94.30
31074;DHT22;17730;53.552;9.940;2023-05-07T14:35:57;17.50;94.30
31074;DHT22;17730;53.552;9.940;2023-05-07T14:38:22;17.50;94.30
31074;DHT22;17730;53.552;9.940;2023-05-07T14:40:48;17.30;94.30
31074;DHT22;17730;53.552;9.940;2023-05-07T14:43:13;17.10;95.00
31074;DHT22;17730;53.552;9.940;2023-05-07T14:45:39;17.30;94.70
31074;DHT22;17730;53.552;9.940;2023-05-07T14:48:04;17.50;94.40
31074;DHT22;17730;53.552;9.940;2023-05-07T14:50:30;17.70;94.20
31074;DHT22;17730;53.552;9.940;2023-05-07T14:52:55;17.80;93.80
31074;DHT22;17730;53.552;9.940;2023-05-07T14:55:21;18.00;93.40
31074;DHT22;17730;53.552;9.940;2023-05-07T14:57:46;18.30;93.10
31074;DHT22;17730;53.552;9.940;2023-05-07T15:00:15;18.40;92.70
31074;DHT22;17730;53.552;9.940;2023-05-07T15:02:41;18.70;92.00
31074;DHT22;17730;53.552;9.940;2023-05-07T15:05:06;18.60;91.70
31074;DHT22;17730;53.552;9.940;2023-05-07T15:07:32;18.60;91.50
31074;DHT22;17730;53.552;9.940;2023-05-07T15:09:59;18.50;91.30
31074;DHT22;17730;53.552;9.940;2023-05-07T15:12:24;18.40;91.30
31074;DHT22;17730;53.552;9.940;2023-05-07T15:14:50;18.20;91.70
31074;DHT22;17730;53.552;9.940;2023-05-07T15:17:15;18.30;91.70
31074;DHT22;17730;53.552;9.940;2023-05-07T15:19:41;18.30;91.60
31074;DHT22;17730;53.552;9.940;2023-05-07T15:22:07;18.30;91.30
31074;DHT22;17730;53.552;9.940;2023-05-07T15:24:32;18.30;90.90
31074;DHT22;17730;53.552;9.940;2023-05-07T15:26:58;18.30;91.00
31074;DHT22;17730;53.552;9.940;2023-05-07T15:29:23;18.20;91.30
31074;DHT22;17730;53.552;9.940;2023-05-07T15:31:49;18.20;91.60
31074;DHT22;17730;53.552;9.940;2023-05-07T15:34:14;18.20;92.00
31074;DHT22;17730;53.552;9.940;2023-05-07T15:36:42;18.20;91.90
31074;DHT22;17730;53.552;9.940;2023-05-07T15:39:08;18.20;91.90
31074;DHT22;17730;53.552;9.940;2023-05-07T15:41:35;18.10;91.60